createdAt,value
2023-03-29T00:01:00.189Z,9.30
2023-03-29T00:03:29.016Z,9.30
2023-03-29T00:06:03.410Z,9.40
2023-03-29T00:08:34.232Z,9.40
2023-03-29T00:11:02.346Z,9.40
2023-03-29T00:13:30.778Z,9.40
2023-03-29T00:15:58.505Z,9.40
2023-03-29T00:18:26.688Z,9.40
2023-03-29T00:20:56.310Z,9.40
2023-03-29T00:23:25.318Z,9.50
2023-03-29T00:25:56.808Z,9.40
2023-03-29T00:28:25.951Z,9.40
2023-03-29T00:31:03.484Z,9.40
2023-03-29T00:33:32.777Z,9.40
2023-03-29T00:36:00.711Z,9.40
2023-03-29T00:38:28.904Z,9.40
2023-03-29T00:40:56.800Z,9.40
2023-03-29T00:43:25.502Z,9.40
2023-03-29T00:45:54.162Z,9.40
2023-03-29T00:48:27.095Z,9.40
2023-03-29T00:51:00.369Z,9.40
2023-03-29T00:53:48.833Z,9.40
2023-03-29T00:56:24.256Z,9.40
2023-03-29T00:59:10.046Z,9.40
2023-03-29T01:01:55.083Z,9.50
2023-03-29T01:04:36.470Z,9.50
2023-03-29T01:07:21.462Z,9.40
2023-03-29T01:09:55.056Z,9.50
2023-03-29T01:12:28.663Z,9.50
2023-03-29T01:15:02.419Z,9.50
2023-03-29T01:17:31.764Z,9.50
2023-03-29T01:20:23.424Z,9.50
2023-03-29T01:22:54.750Z,9.50
2023-03-29T01:25:29.504Z,9.50
2023-03-29T01:28:11.640Z,9.50
2023-03-29T01:30:49.869Z,9.50
2023-03-29T01:33:46.975Z,9.50
2023-03-29T01:36:29.860Z,9.50
2023-03-29T01:39:03.485Z,9.50
2023-03-29T01:42:05.653Z,9.50
2023-03-29T01:45:06.521Z,9.50
2023-03-29T01:47:43.838Z,9.50
2023-03-29T01:50:28.424Z,9.50
2023-03-29T01:53:03.683Z,9.50
2023-03-29T01:55:38.641Z,9.50
2023-03-29T01:58:09.677Z,9.50
2023-03-29T02:00:39.885Z,9.50
2023-03-29T02:03:10.125Z,9.50
2023-03-29T02:05:39.697Z,9.60
2023-03-29T02:08:11.643Z,9.60
2023-03-29T02:10:40.033Z,9.50
2023-03-29T02:13:08.056Z,9.50
2023-03-29T02:15:35.937Z,9.50
2023-03-29T02:18:06.774Z,9.50
2023-03-29T02:20:39.301Z,9.50
2023-03-29T02:23:30.472Z,9.50
2023-03-29T02:25:58.853Z,9.50
2023-03-29T02:28:29.254Z,9.50
2023-03-29T02:31:11.156Z,9.40
2023-03-29T02:33:58.840Z,9.40
2023-03-29T02:36:31.551Z,9.50
2023-03-29T02:39:02.266Z,9.50
2023-03-29T02:41:30.520Z,9.50
2023-03-29T02:44:00.377Z,9.50
2023-03-29T02:46:28.661Z,9.50
2023-03-29T02:48:58.818Z,9.50
2023-03-29T02:51:33.267Z,9.50
2023-03-29T02:54:06.037Z,9.60
2023-03-29T02:56:49.293Z,9.60
2023-03-29T02:59:25.870Z,9.60
2023-03-29T03:01:53.933Z,9.60
2023-03-29T03:04:23.496Z,9.60
2023-03-29T03:06:51.662Z,9.60
2023-03-29T03:09:19.848Z,9.70
2023-03-29T03:11:48.646Z,9.70
2023-03-29T03:14:22.884Z,9.70
2023-03-29T03:16:55.195Z,9.70
2023-03-29T03:19:23.378Z,9.70
2023-03-29T03:21:51.105Z,9.80
2023-03-29T03:24:19.182Z,9.80
2023-03-29T03:26:47.576Z,9.80
2023-03-29T03:29:16.621Z,9.80
2023-03-29T03:32:04.473Z,9.80
2023-03-29T03:35:05.926Z,9.80
2023-03-29T03:37:33.986Z,9.80
2023-03-29T03:40:05.613Z,9.80
2023-03-29T03:42:34.197Z,9.80
2023-03-29T03:45:05.768Z,9.80
2023-03-29T03:47:42.758Z,9.80
2023-03-29T03:50:33.890Z,9.80
2023-03-29T03:53:02.257Z,9.80
2023-03-29T03:55:51.496Z,9.80
2023-03-29T03:58:24.383Z,9.80
2023-03-29T04:00:52.474Z,9.80
2023-03-29T04:03:33.037Z,9.80
2023-03-29T04:06:04.637Z,9.80
2023-03-29T04:08:51.695Z,9.80
2023-03-29T04:11:29.127Z,9.80
2023-03-29T04:13:57.750Z,9.80
2023-03-29T04:16:39.237Z,9.80
2023-03-29T04:19:27.102Z,9.80
2023-03-29T04:21:56.036Z,9.80
2023-03-29T04:24:26.309Z,9.80
2023-03-29T04:27:13.010Z,9.90
2023-03-29T04:29:41.015Z,9.90
2023-03-29T04:32:19.118Z,9.90
2023-03-29T04:35:12.383Z,9.90
2023-03-29T04:37:41.867Z,9.90
2023-03-29T04:40:14.485Z,9.90
2023-03-29T04:42:54.458Z,9.90
2023-03-29T04:45:25.377Z,9.90
2023-03-29T04:48:10.830Z,9.80
2023-03-29T04:50:46.078Z,9.80
2023-03-29T04:53:14.979Z,9.80
2023-03-29T04:55:47.869Z,9.80
2023-03-29T04:58:26.089Z,9.80
2023-03-29T05:01:00.031Z,9.80
2023-03-29T05:03:38.622Z,9.80
2023-03-29T05:06:22.567Z,9.80
2023-03-29T05:08:51.350Z,9.80
2023-03-29T05:11:45.719Z,9.80
2023-03-29T05:14:14.612Z,9.80
2023-03-29T05:16:42.623Z,9.80
2023-03-29T05:19:11.423Z,9.80
2023-03-29T05:21:44.378Z,9.80
2023-03-29T05:24:17.199Z,9.80
2023-03-29T05:26:57.945Z,9.80
2023-03-29T05:29:28.069Z,9.80
2023-03-29T05:32:10.847Z,9.80
2023-03-29T05:34:39.783Z,9.70
2023-03-29T05:37:07.570Z,9.70
2023-03-29T05:39:49.890Z,9.70
2023-03-29T05:42:22.646Z,9.70
2023-03-29T05:45:00.380Z,9.70
2023-03-29T05:47:28.690Z,9.70
2023-03-29T05:49:57.362Z,9.70
2023-03-29T05:52:25.295Z,9.70
2023-03-29T05:54:53.443Z,9.70
2023-03-29T05:57:22.350Z,9.70
2023-03-29T05:59:50.498Z,9.70
2023-03-29T06:02:18.929Z,9.70
2023-03-29T06:04:51.996Z,9.70
2023-03-29T06:07:25.860Z,9.70
2023-03-29T06:10:12.761Z,9.70
2023-03-29T06:12:45.120Z,9.70
2023-03-29T06:15:14.248Z,9.70
2023-03-29T06:17:47.324Z,9.80
2023-03-29T06:20:17.170Z,9.80
2023-03-29T06:22:49.626Z,9.80
2023-03-29T06:25:20.951Z,9.80
2023-03-29T06:27:52.147Z,9.80
2023-03-29T06:30:21.434Z,9.90
2023-03-29T06:32:52.721Z,9.90
2023-03-29T06:35:41.026Z,10.00
2023-03-29T06:38:11.230Z,10.10
2023-03-29T06:41:05.319Z,10.10
2023-03-29T06:43:50.675Z,10.20
2023-03-29T06:46:19.058Z,10.30
2023-03-29T06:48:58.203Z,10.40
2023-03-29T06:51:33.599Z,10.40
2023-03-29T06:54:02.233Z,10.50
2023-03-29T06:56:32.171Z,10.50
2023-03-29T06:59:10.579Z,10.60
2023-03-29T07:01:56.994Z,10.60
2023-03-29T07:04:36.289Z,10.70
2023-03-29T07:07:20.128Z,10.70
2023-03-29T07:09:55.388Z,10.80
2023-03-29T07:12:32.782Z,10.70
2023-03-29T07:15:02.429Z,10.80
2023-03-29T07:17:50.477Z,10.80
2023-03-29T07:20:18.306Z,10.80
2023-03-29T07:22:51.563Z,10.80
2023-03-29T07:25:22.523Z,10.80
2023-03-29T07:27:52.208Z,10.80
2023-03-29T07:30:23.345Z,10.70
2023-03-29T07:32:53.562Z,10.70
2023-03-29T07:35:30.928Z,10.70
2023-03-29T07:37:59.622Z,10.70
2023-03-29T07:40:28.345Z,10.70
2023-03-29T07:42:59.200Z,10.80
2023-03-29T07:45:31.821Z,10.80
2023-03-29T07:48:11.892Z,10.80
2023-03-29T07:51:03.948Z,10.90
2023-03-29T07:53:41.135Z,10.90
2023-03-29T07:56:23.545Z,10.90
2023-03-29T07:58:58.107Z,11.00
2023-03-29T08:01:26.193Z,11.00
2023-03-29T08:04:17.925Z,11.00
2023-03-29T08:07:24.861Z,11.10
2023-03-29T08:10:23.359Z,11.20
2023-03-29T08:13:10.784Z,11.30
2023-03-29T08:16:16.720Z,11.30
2023-03-29T08:18:52.057Z,11.40
2023-03-29T08:21:22.554Z,11.40
2023-03-29T08:23:52.067Z,11.50
2023-03-29T08:26:27.583Z,11.50
2023-03-29T08:28:57.525Z,11.50
2023-03-29T08:31:28.691Z,11.60
2023-03-29T08:33:57.358Z,11.60
2023-03-29T08:36:44.073Z,11.70
2023-03-29T08:39:24.080Z,11.70
2023-03-29T08:42:33.105Z,11.70
2023-03-29T08:45:37.944Z,11.70
2023-03-29T08:48:15.583Z,11.60
2023-03-29T08:50:56.120Z,11.60
2023-03-29T08:53:44.227Z,11.50
2023-03-29T08:56:43.476Z,11.50
2023-03-29T08:59:29.690Z,11.40
2023-03-29T09:02:02.240Z,11.40
2023-03-29T09:04:35.760Z,11.40
2023-03-29T09:07:17.160Z,11.40
2023-03-29T09:09:48.556Z,11.40
2023-03-29T09:13:16.967Z,11.40
2023-03-29T09:16:06.170Z,11.40
2023-03-29T09:19:19.620Z,11.50
2023-03-29T09:22:14.098Z,11.50
2023-03-29T09:24:51.678Z,11.50
2023-03-29T09:27:35.967Z,11.60
2023-03-29T09:30:49.859Z,11.70
2023-03-29T09:33:43.668Z,11.70
2023-03-29T09:38:44.112Z,11.80
2023-03-29T09:41:24.903Z,11.80
2023-03-29T09:43:55.786Z,11.80
2023-03-29T09:46:55.980Z,11.90
2023-03-29T09:49:34.959Z,12.00
2023-03-29T09:52:13.051Z,12.00
2023-03-29T09:54:44.485Z,12.10
2023-03-29T09:57:38.331Z,12.10
2023-03-29T10:00:07.416Z,12.20
2023-03-29T10:02:52.712Z,12.20
2023-03-29T10:05:26.265Z,12.20
2023-03-29T10:07:58.669Z,12.30
2023-03-29T10:10:35.398Z,12.30
2023-03-29T10:13:13.499Z,12.30
2023-03-29T10:15:41.979Z,12.40
2023-03-29T10:18:13.865Z,12.40
2023-03-29T10:20:41.888Z,12.50
2023-03-29T10:23:18.305Z,12.50
2023-03-29T10:25:48.530Z,12.50
2023-03-29T10:30:01.257Z,12.60
2023-03-29T10:32:35.604Z,12.60
2023-03-29T10:35:23.811Z,12.60
2023-03-29T10:37:55.838Z,12.60
2023-03-29T10:40:33.464Z,12.60
2023-03-29T10:43:14.046Z,12.60
2023-03-29T10:45:42.515Z,12.60
2023-03-29T10:48:15.511Z,12.50
2023-03-29T10:50:48.538Z,12.50
2023-03-29T10:53:26.336Z,12.50
2023-03-29T10:56:18.510Z,12.50
2023-03-29T10:58:59.022Z,12.50
2023-03-29T11:01:46.229Z,12.50
2023-03-29T11:04:26.345Z,12.50
2023-03-29T11:07:28.213Z,12.50
2023-03-29T11:09:56.236Z,12.50
2023-03-29T11:12:34.421Z,12.50
2023-03-29T11:15:12.723Z,12.50
2023-03-29T11:17:51.102Z,12.50
2023-03-29T11:20:28.357Z,12.50
2023-03-29T11:23:08.945Z,12.50
2023-03-29T11:26:04.714Z,12.50
2023-03-29T11:28:54.372Z,12.50
2023-03-29T11:31:51.504Z,12.60
2023-03-29T11:34:22.121Z,12.60
2023-03-29T11:36:59.519Z,12.70
2023-03-29T11:39:35.127Z,12.70
2023-03-29T11:42:12.477Z,12.80
2023-03-29T11:44:42.132Z,12.90
2023-03-29T11:47:15.137Z,13.00
2023-03-29T11:49:49.292Z,13.10
2023-03-29T11:52:30.871Z,13.20
2023-03-29T11:55:02.803Z,13.20
2023-03-29T11:57:38.230Z,13.30
2023-03-29T12:00:21.364Z,13.40
2023-03-29T12:03:19.713Z,13.40
2023-03-29T12:06:05.930Z,13.40
2023-03-29T12:08:42.491Z,13.40
2023-03-29T12:11:22.982Z,13.30
2023-03-29T12:13:56.931Z,13.30
2023-03-29T12:16:35.319Z,13.30
2023-03-29T12:19:27.798Z,13.30
2023-03-29T12:22:06.372Z,13.30
2023-03-29T12:24:43.179Z,13.40
2023-03-29T12:27:20.841Z,13.50
2023-03-29T12:30:19.672Z,13.60
2023-03-29T12:33:18.369Z,13.70
2023-03-29T12:36:06.752Z,13.80
2023-03-29T12:38:38.277Z,13.90
2023-03-29T12:41:25.421Z,14.00
2023-03-29T12:44:16.610Z,14.00
2023-03-29T12:46:58.151Z,14.10
2023-03-29T12:49:35.448Z,14.10
2023-03-29T12:52:22.779Z,14.10
2023-03-29T12:54:56.254Z,14.20
2023-03-29T12:57:40.060Z,14.20
2023-03-29T13:00:32.784Z,14.40
2023-03-29T13:03:22.939Z,14.50
2023-03-29T13:06:05.351Z,14.50
2023-03-29T13:08:45.003Z,14.60
2023-03-29T13:11:31.742Z,14.60
2023-03-29T13:14:16.819Z,14.60
2023-03-29T13:16:44.974Z,14.60
2023-03-29T13:19:39.369Z,14.60
2023-03-29T13:22:33.151Z,14.60
2023-03-29T13:25:10.367Z,14.60
2023-03-29T13:27:50.374Z,14.70
2023-03-29T13:30:35.928Z,14.70
2023-03-29T13:33:34.873Z,14.70
2023-03-29T13:36:34.395Z,14.80
2023-03-29T13:39:07.689Z,14.80
2023-03-29T13:41:38.823Z,14.70
2023-03-29T13:44:22.191Z,14.70
2023-03-29T13:47:10.328Z,14.70
2023-03-29T13:49:42.443Z,14.60
2023-03-29T13:52:26.429Z,14.70
2023-03-29T13:55:21.064Z,14.70
2023-03-29T13:58:01.051Z,14.70
2023-03-29T14:00:36.967Z,14.80
2023-03-29T14:03:13.285Z,14.80
2023-03-29T14:05:44.412Z,14.90
2023-03-29T14:08:20.982Z,15.00
2023-03-29T14:10:49.396Z,15.00
2023-03-29T14:13:20.928Z,15.20
2023-03-29T14:15:50.929Z,15.20
2023-03-29T14:18:22.592Z,15.20
2023-03-29T14:20:53.625Z,15.10
2023-03-29T14:23:27.413Z,15.10
2023-03-29T14:25:56.248Z,15.00
2023-03-29T14:28:28.951Z,15.00
2023-03-29T14:30:57.309Z,14.90
2023-03-29T14:33:29.328Z,14.80
2023-03-29T14:36:00.939Z,14.80
2023-03-29T14:38:30.832Z,14.80
2023-03-29T14:41:00.700Z,14.80
2023-03-29T14:43:32.115Z,14.80
2023-03-29T14:46:04.560Z,14.80
2023-03-29T14:48:33.673Z,14.90
2023-03-29T14:51:01.960Z,15.00
2023-03-29T14:53:32.396Z,15.10
2023-03-29T14:56:02.157Z,15.20
2023-03-29T14:58:35.817Z,15.20
2023-03-29T15:01:07.981Z,15.30
2023-03-29T15:04:02.060Z,15.30
2023-03-29T15:06:31.689Z,15.40
2023-03-29T15:09:05.266Z,15.40
2023-03-29T15:11:35.896Z,15.40
2023-03-29T15:14:17.001Z,15.40
2023-03-29T15:16:47.016Z,15.40
2023-03-29T15:19:18.471Z,15.40
2023-03-29T15:21:49.080Z,15.30
2023-03-29T15:24:20.035Z,15.30
2023-03-29T15:26:59.281Z,15.30
2023-03-29T15:29:41.931Z,15.20
2023-03-29T15:32:19.886Z,15.20
2023-03-29T15:35:01.908Z,15.20
2023-03-29T15:37:29.785Z,15.20
2023-03-29T15:39:58.107Z,15.20
2023-03-29T15:42:26.260Z,15.20
2023-03-29T15:44:56.397Z,15.20
2023-03-29T15:47:24.556Z,15.30
2023-03-29T15:49:53.011Z,15.30
2023-03-29T15:52:21.024Z,15.30
2023-03-29T15:54:49.564Z,15.20
2023-03-29T15:57:18.559Z,15.20
2023-03-29T15:59:46.787Z,15.20
2023-03-29T16:02:16.745Z,15.10
2023-03-29T16:04:45.442Z,15.00
2023-03-29T16:07:15.461Z,15.00
2023-03-29T16:09:44.451Z,15.00
2023-03-29T16:12:12.732Z,14.90
2023-03-29T16:14:43.056Z,14.90
2023-03-29T16:17:11.571Z,14.90
2023-03-29T16:19:39.631Z,14.80
2023-03-29T16:22:07.613Z,14.80
2023-03-29T16:24:36.534Z,14.80
2023-03-29T16:27:04.513Z,14.80
2023-03-29T16:29:32.797Z,14.90
2023-03-29T16:32:01.035Z,14.90
2023-03-29T16:34:30.066Z,14.80
2023-03-29T16:36:58.150Z,14.80
2023-03-29T16:39:26.197Z,14.80
2023-03-29T16:41:53.949Z,14.80
2023-03-29T16:44:23.921Z,14.90
2023-03-29T16:46:59.919Z,14.90
2023-03-29T16:49:32.933Z,14.90
2023-03-29T16:52:01.169Z,14.80
2023-03-29T16:54:29.742Z,14.80
2023-03-29T16:56:57.894Z,14.80
2023-03-29T16:59:26.249Z,14.80
2023-03-29T17:01:56.492Z,14.70
2023-03-29T17:04:24.573Z,14.80
2023-03-29T17:06:53.488Z,14.70
2023-03-29T17:09:21.634Z,14.80
2023-03-29T17:11:49.491Z,14.70
2023-03-29T17:14:22.210Z,14.70
2023-03-29T17:16:58.019Z,14.70
2023-03-29T17:19:26.416Z,14.70
2023-03-29T17:21:54.166Z,14.70
2023-03-29T17:24:22.659Z,14.70
2023-03-29T17:26:53.843Z,14.60
2023-03-29T17:29:22.052Z,14.60
2023-03-29T17:31:50.306Z,14.50
2023-03-29T17:34:20.929Z,14.50
2023-03-29T17:36:48.950Z,14.50
2023-03-29T17:39:19.450Z,14.40
2023-03-29T17:41:50.376Z,14.40
2023-03-29T17:44:18.735Z,14.30
2023-03-29T17:46:46.796Z,14.30
2023-03-29T17:49:15.053Z,14.20
2023-03-29T17:51:42.826Z,14.20
2023-03-29T17:54:11.169Z,14.10
2023-03-29T17:56:38.903Z,14.00
2023-03-29T17:59:09.055Z,14.00
2023-03-29T18:01:39.093Z,13.90
2023-03-29T18:04:07.748Z,13.80
2023-03-29T18:06:35.885Z,13.70
2023-03-29T18:09:04.675Z,13.60
2023-03-29T18:11:36.535Z,13.60
2023-03-29T18:14:05.383Z,13.60
2023-03-29T18:16:33.264Z,13.50
2023-03-29T18:19:01.381Z,13.40
2023-03-29T18:21:29.206Z,13.40
2023-03-29T18:23:57.336Z,13.40
2023-03-29T18:26:25.809Z,13.30
2023-03-29T18:28:54.298Z,13.30
2023-03-29T18:31:22.361Z,13.30
2023-03-29T18:33:50.510Z,13.30
2023-03-29T18:36:18.250Z,13.20
2023-03-29T18:38:46.296Z,13.10
2023-03-29T18:41:14.584Z,13.10
2023-03-29T18:43:44.154Z,13.00
2023-03-29T18:46:13.130Z,13.00
2023-03-29T18:48:43.836Z,12.90
2023-03-29T18:51:12.613Z,12.90
2023-03-29T18:53:43.054Z,12.90
2023-03-29T18:56:11.317Z,12.80
2023-03-29T18:58:39.500Z,12.80
2023-03-29T19:01:07.644Z,12.80
2023-03-29T19:03:36.384Z,12.70
2023-03-29T19:06:05.973Z,12.60
2023-03-29T19:08:37.441Z,12.60
2023-03-29T19:11:07.757Z,12.50
2023-03-29T19:13:36.552Z,12.50
2023-03-29T19:16:07.540Z,12.40
2023-03-29T19:18:35.884Z,12.40
2023-03-29T19:21:04.028Z,12.30
2023-03-29T19:23:34.268Z,12.20
2023-03-29T19:26:05.429Z,12.20
2023-03-29T19:28:34.358Z,12.10
2023-03-29T19:31:03.072Z,12.10
2023-03-29T19:33:32.392Z,12.00
2023-03-29T19:36:00.119Z,12.00
2023-03-29T19:38:28.197Z,12.00
2023-03-29T19:40:55.976Z,12.00
2023-03-29T19:43:24.920Z,12.00
2023-03-29T19:45:52.663Z,11.90
2023-03-29T19:48:23.408Z,11.90
2023-03-29T19:50:52.078Z,11.90
2023-03-29T19:53:20.154Z,11.90
2023-03-29T19:55:48.783Z,11.90
2023-03-29T19:58:16.833Z,11.80
2023-03-29T20:00:44.728Z,11.80
2023-03-29T20:03:14.034Z,11.80
2023-03-29T20:05:42.450Z,11.80
2023-03-29T20:08:10.753Z,11.80
2023-03-29T20:10:38.490Z,11.90
2023-03-29T20:13:06.777Z,11.90
2023-03-29T20:15:35.252Z,11.90
2023-03-29T20:18:03.590Z,11.90
2023-03-29T20:20:35.775Z,11.90
2023-03-29T20:23:05.450Z,12.00
2023-03-29T20:25:36.380Z,12.00
2023-03-29T20:28:06.608Z,12.00
2023-03-29T20:30:35.209Z,12.00
2023-03-29T20:33:04.761Z,12.00
2023-03-29T20:35:32.880Z,12.00
2023-03-29T20:38:01.458Z,12.00
2023-03-29T20:40:31.932Z,12.00
2023-03-29T20:42:59.955Z,12.00
2023-03-29T20:45:31.648Z,12.00
2023-03-29T20:48:03.729Z,12.00
2023-03-29T20:50:31.568Z,12.00
2023-03-29T20:53:03.656Z,12.00
2023-03-29T20:55:33.466Z,12.00
2023-03-29T20:58:02.346Z,12.10
2023-03-29T21:00:32.631Z,12.10
2023-03-29T21:03:01.355Z,12.10
2023-03-29T21:05:30.884Z,12.10
2023-03-29T21:07:59.248Z,12.20
2023-03-29T21:10:29.805Z,12.20
2023-03-29T21:13:02.634Z,12.20
2023-03-29T21:15:31.977Z,12.20
2023-03-29T21:18:00.169Z,12.20
2023-03-29T21:20:28.119Z,12.30
2023-03-29T21:22:56.712Z,12.30
2023-03-29T21:25:27.630Z,12.40
2023-03-29T21:27:55.672Z,12.30
2023-03-29T21:30:23.443Z,12.40
2023-03-29T21:32:51.480Z,12.40
2023-03-29T21:35:19.337Z,12.40
2023-03-29T21:37:50.476Z,12.40
2023-03-29T21:40:20.838Z,12.40
2023-03-29T21:42:48.833Z,12.50
2023-03-29T21:45:16.756Z,12.50
2023-03-29T21:47:47.350Z,12.50
2023-03-29T21:50:16.362Z,12.40
2023-03-29T21:52:44.554Z,12.50
2023-03-29T21:55:12.370Z,12.50
2023-03-29T21:57:40.578Z,12.50
2023-03-29T22:00:12.784Z,12.50
2023-03-29T22:02:40.985Z,12.50
2023-03-29T22:05:09.288Z,12.60
2023-03-29T22:07:38.807Z,12.60
2023-03-29T22:10:09.416Z,12.50
2023-03-29T22:12:39.025Z,12.60
2023-03-29T22:15:08.120Z,12.60
2023-03-29T22:17:36.342Z,12.60
2023-03-29T22:20:14.271Z,12.60
2023-03-29T22:22:46.958Z,12.60
2023-03-29T22:25:14.867Z,12.60
2023-03-29T22:27:44.670Z,12.60
2023-03-29T22:30:14.129Z,12.60
2023-03-29T22:32:42.237Z,12.60
2023-03-29T22:35:10.293Z,12.60
2023-03-29T22:37:45.579Z,12.60
2023-03-29T22:40:13.592Z,12.60
2023-03-29T22:42:41.620Z,12.60
2023-03-29T22:45:11.796Z,12.60
2023-03-29T22:47:39.971Z,12.60
2023-03-29T22:50:08.317Z,12.60
2023-03-29T22:52:36.463Z,12.60
2023-03-29T22:55:04.521Z,12.50
2023-03-29T22:57:35.066Z,12.50
2023-03-29T23:00:08.903Z,12.50
2023-03-29T23:02:37.787Z,12.50
2023-03-29T23:05:06.177Z,12.50
2023-03-29T23:07:36.543Z,12.50
2023-03-29T23:10:06.468Z,12.50
2023-03-29T23:12:36.342Z,12.50
2023-03-29T23:15:06.394Z,12.50
2023-03-29T23:17:35.026Z,12.40
2023-03-29T23:20:06.020Z,12.40
2023-03-29T23:22:36.352Z,12.40
2023-03-29T23:25:04.497Z,12.40
2023-03-29T23:27:33.184Z,12.40
2023-03-29T23:30:01.780Z,12.40
2023-03-29T23:32:29.880Z,12.50
2023-03-29T23:34:58.082Z,12.40
2023-03-29T23:37:26.323Z,12.50
2023-03-29T23:39:53.998Z,12.50
2023-03-29T23:42:24.491Z,12.50
2023-03-29T23:44:52.334Z,12.50
2023-03-29T23:47:20.876Z,12.50
2023-03-29T23:49:48.729Z,12.50
2023-03-29T23:52:17.529Z,12.50
2023-03-29T23:54:45.360Z,12.50
2023-03-29T23:57:13.558Z,12.50
2023-03-29T23:59:41.315Z,12.50
